sensor_id;sensor_type;location;lat;lon;timestamp;pressure;altitude;pressure_sealevel;temperature;humidity
30110;BME280;14965;50.660;13.226;2023-04-07T00:00:07;94997.88;;;0.01;66.15
30110;BME280;14965;50.660;13.226;2023-04-07T00:02:34;94997.03;;;-0.04;66.08
30110;BME280;14965;50.660;13.226;2023-04-07T00:05:00;94985.75;;;-0.06;66.88
30110;BME280;14965;50.660;13.226;2023-04-07T00:07:27;94982.22;;;-0.10;67.48
30110;BME280;14965;50.660;13.226;2023-04-07T00:09:53;94977.50;;;-0.13;67.86
30110;BME280;14965;50.660;13.226;2023-04-07T00:12:20;94981.75;;;-0.15;67.99
30110;BME280;14965;50.660;13.226;2023-04-07T00:14:47;94977.44;;;-0.20;68.37
30110;BME280;14965;50.660;13.226;2023-04-07T00:17:16;94980.88;;;-0.23;68.47
30110;BME280;14965;50.660;13.226;2023-04-07T00:19:42;94967.25;;;-0.27;67.41
30110;BME280;14965;50.660;13.226;2023-04-07T00:22:08;94967.19;;;-0.30;67.68
30110;BME280;14965;50.660;13.226;2023-04-07T00:24:35;94977.59;;;-0.36;67.76
30110;BME280;14965;50.660;13.226;2023-04-07T00:27:01;94975.97;;;-0.40;67.95
30110;BME280;14965;50.660;13.226;2023-04-07T00:29:28;94968.19;;;-0.42;68.52
30110;BME280;14965;50.660;13.226;2023-04-07T00:31:54;94972.41;;;-0.44;68.84
30110;BME280;14965;50.660;13.226;2023-04-07T00:34:22;94963.91;;;-0.43;68.99
30110;BME280;14965;50.660;13.226;2023-04-07T00:36:49;94968.19;;;-0.42;69.31
30110;BME280;14965;50.660;13.226;2023-04-07T00:39:16;94964.69;;;-0.42;69.74
30110;BME280;14965;50.660;13.226;2023-04-07T00:41:42;94961.25;;;-0.39;70.07
30110;BME280;14965;50.660;13.226;2023-04-07T00:44:08;94951.59;;;-0.37;70.52
30110;BME280;14965;50.660;13.226;2023-04-07T00:46:34;94950.44;;;-0.36;70.18
30110;BME280;14965;50.660;13.226;2023-04-07T00:49:01;94948.91;;;-0.37;70.48
30110;BME280;14965;50.660;13.226;2023-04-07T00:51:28;94948.91;;;-0.37;70.11
30110;BME280;14965;50.660;13.226;2023-04-07T00:53:55;94946.19;;;-0.37;70.49
30110;BME280;14965;50.660;13.226;2023-04-07T00:56:21;94944.13;;;-0.43;68.88
30110;BME280;14965;50.660;13.226;2023-04-07T00:58:47;94937.88;;;-0.47;68.75
30110;BME280;14965;50.660;13.226;2023-04-07T01:01:21;94935.53;;;-0.49;68.21
30110;BME280;14965;50.660;13.226;2023-04-07T01:03:55;94924.25;;;-0.51;68.28
30110;BME280;14965;50.660;13.226;2023-04-07T01:06:32;94930.47;;;-0.51;68.88
30110;BME280;14965;50.660;13.226;2023-04-07T01:09:08;94924.69;;;-0.49;69.35
30110;BME280;14965;50.660;13.226;2023-04-07T01:11:43;94924.31;;;-0.47;68.62
30110;BME280;14965;50.660;13.226;2023-04-07T01:14:18;94927.06;;;-0.44;68.61
30110;BME280;14965;50.660;13.226;2023-04-07T01:16:49;94924.41;;;-0.40;68.25
30110;BME280;14965;50.660;13.226;2023-04-07T01:19:33;94924.88;;;-0.35;67.47
30110;BME280;14965;50.660;13.226;2023-04-07T01:22:11;94919.56;;;-0.28;66.92
30110;BME280;14965;50.660;13.226;2023-04-07T01:25:05;94918.81;;;-0.24;66.12
30110;BME280;14965;50.660;13.226;2023-04-07T01:27:53;94913.84;;;-0.19;66.04
30110;BME280;14965;50.660;13.226;2023-04-07T01:30:30;94923.59;;;-0.14;65.41
30110;BME280;14965;50.660;13.226;2023-04-07T01:32:59;94916.28;;;-0.10;65.25
30110;BME280;14965;50.660;13.226;2023-04-07T01:35:29;94919.81;;;-0.06;65.74
30110;BME280;14965;50.660;13.226;2023-04-07T01:37:58;94913.28;;;-0.02;65.74
30110;BME280;14965;50.660;13.226;2023-04-07T01:40:25;94913.34;;;0.02;65.29
30110;BME280;14965;50.660;13.226;2023-04-07T01:42:55;94913.00;;;0.07;65.71
30110;BME280;14965;50.660;13.226;2023-04-07T01:45:25;94912.59;;;0.05;65.46
30110;BME280;14965;50.660;13.226;2023-04-07T01:47:53;94910.63;;;0.02;65.28
30110;BME280;14965;50.660;13.226;2023-04-07T01:50:21;94907.06;;;-0.02;65.06
30110;BME280;14965;50.660;13.226;2023-04-07T01:52:47;94902.38;;;-0.05;63.68
30110;BME280;14965;50.660;13.226;2023-04-07T01:55:14;94894.19;;;-0.09;63.72
30110;BME280;14965;50.660;13.226;2023-04-07T01:57:41;94897.72;;;-0.08;63.86
30110;BME280;14965;50.660;13.226;2023-04-07T02:00:08;94903.16;;;-0.05;63.65
30110;BME280;14965;50.660;13.226;2023-04-07T02:02:43;94899.34;;;0.00;64.25
30110;BME280;14965;50.660;13.226;2023-04-07T02:05:13;94895.53;;;0.05;64.73
30110;BME280;14965;50.660;13.226;2023-04-07T02:07:49;94890.78;;;-0.02;65.58
30110;BME280;14965;50.660;13.226;2023-04-07T02:10:22;94891.44;;;-0.12;66.13
30110;BME280;14965;50.660;13.226;2023-04-07T02:12:51;94892.19;;;-0.15;65.05
30110;BME280;14965;50.660;13.226;2023-04-07T02:15:18;94889.88;;;-0.13;64.06
30110;BME280;14965;50.660;13.226;2023-04-07T02:17:51;94891.91;;;-0.07;63.97
30110;BME280;14965;50.660;13.226;2023-04-07T02:20:19;94886.53;;;-0.03;64.43
30110;BME280;14965;50.660;13.226;2023-04-07T02:22:47;94887.69;;;-0.01;64.08
30110;BME280;14965;50.660;13.226;2023-04-07T02:25:22;94899.31;;;-0.04;62.79
30110;BME280;14965;50.660;13.226;2023-04-07T02:27:50;94893.47;;;-0.06;61.70
30110;BME280;14965;50.660;13.226;2023-04-07T02:30:16;94896.56;;;-0.07;61.77
30110;BME280;14965;50.660;13.226;2023-04-07T02:32:42;94884.59;;;-0.03;61.67
30110;BME280;14965;50.660;13.226;2023-04-07T02:35:10;94885.41;;;0.02;61.66
30110;BME280;14965;50.660;13.226;2023-04-07T02:37:37;94876.16;;;0.06;61.86
30110;BME280;14965;50.660;13.226;2023-04-07T02:40:05;94878.91;;;0.10;62.26
30110;BME280;14965;50.660;13.226;2023-04-07T02:42:31;94878.53;;;0.11;62.81
30110;BME280;14965;50.660;13.226;2023-04-07T02:44:58;94868.88;;;0.14;62.66
30110;BME280;14965;50.660;13.226;2023-04-07T02:47:24;94879.00;;;0.20;61.92
30110;BME280;14965;50.660;13.226;2023-04-07T02:49:50;94874.81;;;0.27;61.97
30110;BME280;14965;50.660;13.226;2023-04-07T02:52:18;94873.66;;;0.28;62.57
30110;BME280;14965;50.660;13.226;2023-04-07T02:54:44;94875.97;;;0.26;62.62
30110;BME280;14965;50.660;13.226;2023-04-07T02:57:10;94875.13;;;0.18;63.27
30110;BME280;14965;50.660;13.226;2023-04-07T02:59:36;94875.47;;;0.13;64.13
30110;BME280;14965;50.660;13.226;2023-04-07T03:02:02;94870.75;;;0.10;64.29
30110;BME280;14965;50.660;13.226;2023-04-07T03:04:29;94875.81;;;0.11;63.98
30110;BME280;14965;50.660;13.226;2023-04-07T03:06:56;94868.78;;;0.07;64.08
30110;BME280;14965;50.660;13.226;2023-04-07T03:09:25;94867.13;;;-0.02;64.75
30110;BME280;14965;50.660;13.226;2023-04-07T03:11:51;94862.00;;;-0.10;65.53
30110;BME280;14965;50.660;13.226;2023-04-07T03:14:17;94858.84;;;-0.16;66.15
30110;BME280;14965;50.660;13.226;2023-04-07T03:16:43;94860.28;;;-0.22;66.53
30110;BME280;14965;50.660;13.226;2023-04-07T03:19:10;94860.56;;;-0.31;67.30
30110;BME280;14965;50.660;13.226;2023-04-07T03:21:37;94857.03;;;-0.35;67.66
30110;BME280;14965;50.660;13.226;2023-04-07T03:24:04;94860.47;;;-0.41;68.25
30110;BME280;14965;50.660;13.226;2023-04-07T03:26:32;94864.28;;;-0.46;67.21
30110;BME280;14965;50.660;13.226;2023-04-07T03:28:58;94857.31;;;-0.43;66.45
30110;BME280;14965;50.660;13.226;2023-04-07T03:31:25;94860.13;;;-0.36;66.02
30110;BME280;14965;50.660;13.226;2023-04-07T03:33:51;94865.59;;;-0.33;66.06
30110;BME280;14965;50.660;13.226;2023-04-07T03:36:17;94861.31;;;-0.34;66.04
30110;BME280;14965;50.660;13.226;2023-04-07T03:38:46;94860.91;;;-0.36;65.25
30110;BME280;14965;50.660;13.226;2023-04-07T03:41:12;94860.53;;;-0.34;65.00
30110;BME280;14965;50.660;13.226;2023-04-07T03:43:39;94858.59;;;-0.34;65.39
30110;BME280;14965;50.660;13.226;2023-04-07T03:46:06;94860.19;;;-0.33;64.82
30110;BME280;14965;50.660;13.226;2023-04-07T03:48:36;94860.25;;;-0.26;64.28
30110;BME280;14965;50.660;13.226;2023-04-07T03:51:06;94846.38;;;-0.20;64.04
30110;BME280;14965;50.660;13.226;2023-04-07T03:53:32;94849.88;;;-0.20;64.38
30110;BME280;14965;50.660;13.226;2023-04-07T03:55:58;94852.91;;;-0.25;64.79
30110;BME280;14965;50.660;13.226;2023-04-07T03:58:25;94844.31;;;-0.31;64.81
30110;BME280;14965;50.660;13.226;2023-04-07T04:00:52;94853.97;;;-0.33;64.76
30110;BME280;14965;50.660;13.226;2023-04-07T04:03:19;94848.56;;;-0.30;64.41
30110;BME280;14965;50.660;13.226;2023-04-07T04:05:45;94852.44;;;-0.31;64.22
30110;BME280;14965;50.660;13.226;2023-04-07T04:08:11;94852.38;;;-0.34;64.72
30110;BME280;14965;50.660;13.226;2023-04-07T04:10:38;94854.22;;;-0.42;65.45
30110;BME280;14965;50.660;13.226;2023-04-07T04:13:04;94857.28;;;-0.47;65.36
30110;BME280;14965;50.660;13.226;2023-04-07T04:15:30;94858.75;;;-0.53;66.25
30110;BME280;14965;50.660;13.226;2023-04-07T04:17:58;94856.38;;;-0.58;66.38
30110;BME280;14965;50.660;13.226;2023-04-07T04:20:24;94853.59;;;-0.62;66.77
30110;BME280;14965;50.660;13.226;2023-04-07T04:22:51;94857.81;;;-0.64;67.37
30110;BME280;14965;50.660;13.226;2023-04-07T04:25:18;94853.88;;;-0.70;67.19
30110;BME280;14965;50.660;13.226;2023-04-07T04:27:45;94850.34;;;-0.74;67.41
30110;BME280;14965;50.660;13.226;2023-04-07T04:30:11;94846.41;;;-0.77;67.49
30110;BME280;14965;50.660;13.226;2023-04-07T04:32:38;94853.31;;;-0.83;67.77
30110;BME280;14965;50.660;13.226;2023-04-07T04:35:07;94857.91;;;-0.87;67.94
30110;BME280;14965;50.660;13.226;2023-04-07T04:37:34;94850.88;;;-0.88;68.12
30110;BME280;14965;50.660;13.226;2023-04-07T04:40:02;94850.06;;;-0.92;68.32
30110;BME280;14965;50.660;13.226;2023-04-07T04:42:29;94847.34;;;-0.92;68.77
30110;BME280;14965;50.660;13.226;2023-04-07T04:44:55;94847.00;;;-0.91;69.06
30110;BME280;14965;50.660;13.226;2023-04-07T04:47:21;94858.63;;;-0.90;69.39
30110;BME280;14965;50.660;13.226;2023-04-07T04:49:47;94857.41;;;-0.93;69.71
30110;BME280;14965;50.660;13.226;2023-04-07T04:52:16;94855.06;;;-0.94;69.89
30110;BME280;14965;50.660;13.226;2023-04-07T04:54:42;94852.38;;;-0.94;69.80
30110;BME280;14965;50.660;13.226;2023-04-07T04:57:08;94847.78;;;-0.90;70.19
30110;BME280;14965;50.660;13.226;2023-04-07T04:59:34;94859.06;;;-0.85;70.12
30110;BME280;14965;50.660;13.226;2023-04-07T05:02:01;94857.97;;;-0.80;70.23
30110;BME280;14965;50.660;13.226;2023-04-07T05:04:27;94857.31;;;-0.73;69.69
30110;BME280;14965;50.660;13.226;2023-04-07T05:06:54;94856.22;;;-0.69;69.93
30110;BME280;14965;50.660;13.226;2023-04-07T05:09:21;94857.09;;;-0.61;69.79
30110;BME280;14965;50.660;13.226;2023-04-07T05:11:48;94853.69;;;-0.55;69.87
30110;BME280;14965;50.660;13.226;2023-04-07T05:14:14;94853.44;;;-0.42;69.88
30110;BME280;14965;50.660;13.226;2023-04-07T05:16:40;94855.63;;;-0.25;69.41
30110;BME280;14965;50.660;13.226;2023-04-07T05:19:07;94849.19;;;-0.10;68.85
30110;BME280;14965;50.660;13.226;2023-04-07T05:21:33;94850.50;;;0.04;68.58
30110;BME280;14965;50.660;13.226;2023-04-07T05:23:59;94850.25;;;0.16;68.65
30110;BME280;14965;50.660;13.226;2023-04-07T05:26:27;94851.59;;;0.33;68.25
30110;BME280;14965;50.660;13.226;2023-04-07T05:28:54;94845.31;;;0.66;67.78
30110;BME280;14965;50.660;13.226;2023-04-07T05:31:20;94854.84;;;0.93;65.68
30110;BME280;14965;50.660;13.226;2023-04-07T05:33:46;94842.53;;;1.10;65.27
30110;BME280;14965;50.660;13.226;2023-04-07T05:36:12;94835.25;;;1.21;64.55
30110;BME280;14965;50.660;13.226;2023-04-07T05:38:39;94839.56;;;1.33;63.86
30110;BME280;14965;50.660;13.226;2023-04-07T05:41:05;94843.94;;;1.48;63.12
30110;BME280;14965;50.660;13.226;2023-04-07T05:43:32;94838.94;;;1.61;62.42
30110;BME280;14965;50.660;13.226;2023-04-07T05:45:58;94847.94;;;1.69;61.52
30110;BME280;14965;50.660;13.226;2023-04-07T05:48:24;94839.03;;;1.72;61.36
30110;BME280;14965;50.660;13.226;2023-04-07T05:50:51;94846.81;;;1.77;62.00
30110;BME280;14965;50.660;13.226;2023-04-07T05:53:17;94846.09;;;1.91;61.94
30110;BME280;14965;50.660;13.226;2023-04-07T05:55:43;94844.28;;;2.38;61.19
30110;BME280;14965;50.660;13.226;2023-04-07T05:58:09;94839.69;;;2.85;59.64
30110;BME280;14965;50.660;13.226;2023-04-07T06:00:36;94841.59;;;2.91;58.22
30110;BME280;14965;50.660;13.226;2023-04-07T06:03:02;94843.56;;;2.77;58.44
30110;BME280;14965;50.660;13.226;2023-04-07T06:05:28;94850.53;;;2.49;58.94
30110;BME280;14965;50.660;13.226;2023-04-07T06:07:54;94838.84;;;2.34;59.48
30110;BME280;14965;50.660;13.226;2023-04-07T06:10:20;94844.28;;;2.34;60.30
30110;BME280;14965;50.660;13.226;2023-04-07T06:12:46;94847.41;;;2.36;59.71
30110;BME280;14965;50.660;13.226;2023-04-07T06:15:12;94845.06;;;2.38;59.96
30110;BME280;14965;50.660;13.226;2023-04-07T06:17:39;94840.81;;;2.48;60.00
30110;BME280;14965;50.660;13.226;2023-04-07T06:20:07;94843.53;;;2.62;59.77
30110;BME280;14965;50.660;13.226;2023-04-07T06:22:33;94842.41;;;2.78;59.66
30110;BME280;14965;50.660;13.226;2023-04-07T06:24:59;94842.78;;;2.90;59.75
30110;BME280;14965;50.660;13.226;2023-04-07T06:27:25;94838.50;;;3.04;59.68
30110;BME280;14965;50.660;13.226;2023-04-07T06:29:51;94833.81;;;3.15;59.41
30110;BME280;14965;50.660;13.226;2023-04-07T06:32:16;94834.59;;;3.22;58.86
30110;BME280;14965;50.660;13.226;2023-04-07T06:34:44;94832.25;;;3.32;58.43
30110;BME280;14965;50.660;13.226;2023-04-07T06:37:10;94835.72;;;3.43;57.67
30110;BME280;14965;50.660;13.226;2023-04-07T06:39:36;94830.63;;;3.52;57.12
30110;BME280;14965;50.660;13.226;2023-04-07T06:42:01;94832.94;;;3.61;56.70
30110;BME280;14965;50.660;13.226;2023-04-07T06:44:27;94827.44;;;3.71;56.18
30110;BME280;14965;50.660;13.226;2023-04-07T06:46:53;94832.09;;;3.85;54.93
30110;BME280;14965;50.660;13.226;2023-04-07T06:49:19;94821.88;;;4.00;54.87
30110;BME280;14965;50.660;13.226;2023-04-07T06:51:46;94820.63;;;4.19;55.24
30110;BME280;14965;50.660;13.226;2023-04-07T06:54:12;94833.78;;;4.38;54.78
30110;BME280;14965;50.660;13.226;2023-04-07T06:56:38;94829.00;;;4.60;54.30
30110;BME280;14965;50.660;13.226;2023-04-07T06:59:04;94837.47;;;4.77;53.76
30110;BME280;14965;50.660;13.226;2023-04-07T07:01:30;94827.59;;;4.90;53.71
30110;BME280;14965;50.660;13.226;2023-04-07T07:03:56;94832.59;;;5.02;51.99
30110;BME280;14965;50.660;13.226;2023-04-07T07:06:22;94838.13;;;4.95;51.75
30110;BME280;14965;50.660;13.226;2023-04-07T07:08:49;94836.16;;;4.95;51.74
30110;BME280;14965;50.660;13.226;2023-04-07T07:11:15;94824.38;;;5.02;51.71
30110;BME280;14965;50.660;13.226;2023-04-07T07:13:41;94830.59;;;5.06;51.69
30110;BME280;14965;50.660;13.226;2023-04-07T07:16:07;94830.13;;;5.18;52.16
30110;BME280;14965;50.660;13.226;2023-04-07T07:18:32;94833.03;;;5.38;52.50
30110;BME280;14965;50.660;13.226;2023-04-07T07:20:58;94833.28;;;5.55;52.16
30110;BME280;14965;50.660;13.226;2023-04-07T07:23:24;94833.53;;;5.67;50.13
30110;BME280;14965;50.660;13.226;2023-04-07T07:25:52;94840.88;;;5.78;49.96
30110;BME280;14965;50.660;13.226;2023-04-07T07:28:17;94837.28;;;5.84;50.24
30110;BME280;14965;50.660;13.226;2023-04-07T07:30:43;94834.91;;;5.86;50.61
30110;BME280;14965;50.660;13.226;2023-04-07T07:33:09;94847.34;;;5.98;49.19
30110;BME280;14965;50.660;13.226;2023-04-07T07:35:35;94845.78;;;5.97;48.80
30110;BME280;14965;50.660;13.226;2023-04-07T07:38:01;94860.78;;;5.85;50.33
30110;BME280;14965;50.660;13.226;2023-04-07T07:40:26;94854.34;;;5.61;49.51
30110;BME280;14965;50.660;13.226;2023-04-07T07:42:54;94849.38;;;5.49;50.60
30110;BME280;14965;50.660;13.226;2023-04-07T07:45:20;94854.91;;;5.45;49.06
30110;BME280;14965;50.660;13.226;2023-04-07T07:47:46;94853.03;;;5.35;47.36
30110;BME280;14965;50.660;13.226;2023-04-07T07:50:11;94860.50;;;5.31;47.53
30110;BME280;14965;50.660;13.226;2023-04-07T07:52:37;94853.47;;;5.30;46.59
30110;BME280;14965;50.660;13.226;2023-04-07T07:55:04;94857.28;;;5.43;47.29
30110;BME280;14965;50.660;13.226;2023-04-07T07:57:30;94859.03;;;5.64;48.15
30110;BME280;14965;50.660;13.226;2023-04-07T07:59:57;94858.19;;;5.67;48.59
30110;BME280;14965;50.660;13.226;2023-04-07T08:02:23;94864.34;;;5.79;48.66
30110;BME280;14965;50.660;13.226;2023-04-07T08:04:49;94864.59;;;5.91;49.06
30110;BME280;14965;50.660;13.226;2023-04-07T08:07:15;94871.91;;;6.05;46.72
30110;BME280;14965;50.660;13.226;2023-04-07T08:09:41;94873.56;;;5.99;46.32
30110;BME280;14965;50.660;13.226;2023-04-07T08:12:07;94874.38;;;5.96;46.98
30110;BME280;14965;50.660;13.226;2023-04-07T08:14:33;94871.28;;;5.90;46.09
30110;BME280;14965;50.660;13.226;2023-04-07T08:17:01;94869.19;;;6.05;46.97
30110;BME280;14965;50.660;13.226;2023-04-07T08:19:26;94872.13;;;6.21;45.07
30110;BME280;14965;50.660;13.226;2023-04-07T08:21:52;94868.75;;;6.41;44.13
30110;BME280;14965;50.660;13.226;2023-04-07T08:24:18;94867.25;;;6.36;41.49
30110;BME280;14965;50.660;13.226;2023-04-07T08:26:46;94866.53;;;6.32;42.35
30110;BME280;14965;50.660;13.226;2023-04-07T08:29:12;94866.38;;;6.43;43.36
30110;BME280;14965;50.660;13.226;2023-04-07T08:31:38;94863.84;;;6.56;42.35
30110;BME280;14965;50.660;13.226;2023-04-07T08:34:06;94867.38;;;6.56;42.08
30110;BME280;14965;50.660;13.226;2023-04-07T08:36:32;94861.78;;;6.63;42.08
30110;BME280;14965;50.660;13.226;2023-04-07T08:38:58;94861.03;;;6.63;41.68
30110;BME280;14965;50.660;13.226;2023-04-07T08:41:34;94860.47;;;6.75;41.83
30110;BME280;14965;50.660;13.226;2023-04-07T08:44:03;94864.38;;;7.01;42.20
30110;BME280;14965;50.660;13.226;2023-04-07T08:46:29;94857.97;;;7.11;41.30
30110;BME280;14965;50.660;13.226;2023-04-07T08:48:57;94858.81;;;7.32;41.67
30110;BME280;14965;50.660;13.226;2023-04-07T08:51:28;94859.22;;;7.54;40.74
30110;BME280;14965;50.660;13.226;2023-04-07T08:54:03;94868.06;;;7.65;39.47
30110;BME280;14965;50.660;13.226;2023-04-07T08:56:32;94868.25;;;7.54;39.87
30110;BME280;14965;50.660;13.226;2023-04-07T08:59:00;94869.03;;;7.78;41.07
30110;BME280;14965;50.660;13.226;2023-04-07T09:01:28;94861.56;;;8.18;40.35
30110;BME280;14965;50.660;13.226;2023-04-07T09:03:56;94864.97;;;8.26;40.35
30110;BME280;14965;50.660;13.226;2023-04-07T09:06:25;94865.47;;;8.21;39.91
30110;BME280;14965;50.660;13.226;2023-04-07T09:08:51;94865.00;;;7.83;40.09
30110;BME280;14965;50.660;13.226;2023-04-07T09:11:18;94866.66;;;7.77;39.70
30110;BME280;14965;50.660;13.226;2023-04-07T09:13:44;94874.03;;;7.60;39.68
30110;BME280;14965;50.660;13.226;2023-04-07T09:16:12;94877.56;;;7.60;39.33
30110;BME280;14965;50.660;13.226;2023-04-07T09:18:38;94869.88;;;7.95;38.77
30110;BME280;14965;50.660;13.226;2023-04-07T09:21:05;94868.69;;;8.36;40.00
30110;BME280;14965;50.660;13.226;2023-04-07T09:23:35;94878.53;;;7.93;38.83
30110;BME280;14965;50.660;13.226;2023-04-07T09:26:18;94878.84;;;7.99;39.85
30110;BME280;14965;50.660;13.226;2023-04-07T09:28:47;94868.72;;;8.16;39.51
30110;BME280;14965;50.660;13.226;2023-04-07T09:31:19;94868.56;;;8.43;38.33
30110;BME280;14965;50.660;13.226;2023-04-07T09:33:46;94866.72;;;8.56;36.95
30110;BME280;14965;50.660;13.226;2023-04-07T09:36:12;94852.47;;;8.61;36.22
30110;BME280;14965;50.660;13.226;2023-04-07T09:38:42;94860.72;;;8.97;36.79
30110;BME280;14965;50.660;13.226;2023-04-07T09:41:10;94855.66;;;8.96;35.94
30110;BME280;14965;50.660;13.226;2023-04-07T09:43:40;94857.56;;;8.63;36.40
30110;BME280;14965;50.660;13.226;2023-04-07T09:46:09;94859.06;;;8.84;37.55
30110;BME280;14965;50.660;13.226;2023-04-07T09:48:35;94854.69;;;8.86;34.78
30110;BME280;14965;50.660;13.226;2023-04-07T09:51:06;94847.59;;;8.85;35.58
30110;BME280;14965;50.660;13.226;2023-04-07T09:53:46;94839.53;;;8.94;37.56
30110;BME280;14965;50.660;13.226;2023-04-07T09:56:14;94846.19;;;9.13;36.78
30110;BME280;14965;50.660;13.226;2023-04-07T09:58:40;94845.84;;;9.28;36.27
30110;BME280;14965;50.660;13.226;2023-04-07T10:01:07;94837.06;;;9.16;35.40
30110;BME280;14965;50.660;13.226;2023-04-07T10:03:34;94846.13;;;8.81;36.40
30110;BME280;14965;50.660;13.226;2023-04-07T10:06:00;94842.09;;;8.29;37.80
30110;BME280;14965;50.660;13.226;2023-04-07T10:08:27;94835.13;;;8.24;37.38
30110;BME280;14965;50.660;13.226;2023-04-07T10:10:54;94837.75;;;8.12;37.70
30110;BME280;14965;50.660;13.226;2023-04-07T10:13:21;94844.84;;;7.89;37.81
30110;BME280;14965;50.660;13.226;2023-04-07T10:15:47;94849.38;;;7.99;38.50
30110;BME280;14965;50.660;13.226;2023-04-07T10:18:14;94842.88;;;8.30;38.03
30110;BME280;14965;50.660;13.226;2023-04-07T10:20:43;94835.97;;;8.21;37.97
30110;BME280;14965;50.660;13.226;2023-04-07T10:23:17;94846.69;;;8.16;39.62
30110;BME280;14965;50.660;13.226;2023-04-07T10:25:46;94844.41;;;8.31;39.01
30110;BME280;14965;50.660;13.226;2023-04-07T10:28:16;94836.88;;;8.55;39.19
30110;BME280;14965;50.660;13.226;2023-04-07T10:30:44;94838.34;;;8.59;38.67
30110;BME280;14965;50.660;13.226;2023-04-07T10:33:12;94840.13;;;8.69;37.81
30110;BME280;14965;50.660;13.226;2023-04-07T10:36:02;94840.91;;;8.50;36.34
30110;BME280;14965;50.660;13.226;2023-04-07T10:38:28;94845.00;;;8.42;35.08
30110;BME280;14965;50.660;13.226;2023-04-07T10:40:55;94836.59;;;8.29;36.59
30110;BME280;14965;50.660;13.226;2023-04-07T10:43:39;94832.91;;;8.36;37.46
30110;BME280;14965;50.660;13.226;2023-04-07T10:46:06;94827.59;;;8.48;36.64
30110;BME280;14965;50.660;13.226;2023-04-07T10:48:33;94832.63;;;8.70;36.24
30110;BME280;14965;50.660;13.226;2023-04-07T10:51:15;94823.97;;;9.04;36.50
30110;BME280;14965;50.660;13.226;2023-04-07T10:54:21;94829.06;;;9.22;36.78
30110;BME280;14965;50.660;13.226;2023-04-07T10:57:11;94834.72;;;9.47;37.99
30110;BME280;14965;50.660;13.226;2023-04-07T11:00:13;94828.81;;;9.49;36.43
30110;BME280;14965;50.660;13.226;2023-04-07T11:02:33;94836.09;;;9.39;36.69
30110;BME280;14965;50.660;13.226;2023-04-07T11:04:59;94829.13;;;9.51;37.27
30110;BME280;14965;50.660;13.226;2023-04-07T11:07:45;94833.41;;;9.68;36.76
30110;BME280;14965;50.660;13.226;2023-04-07T11:10:13;94832.25;;;9.53;37.43
30110;BME280;14965;50.660;13.226;2023-04-07T11:12:39;94829.22;;;9.15;37.88
30110;BME280;14965;50.660;13.226;2023-04-07T11:15:18;94836.00;;;8.94;37.88
30110;BME280;14965;50.660;13.226;2023-04-07T11:17:44;94846.66;;;8.76;37.34
30110;BME280;14965;50.660;13.226;2023-04-07T11:20:11;94838.28;;;8.63;39.43
30110;BME280;14965;50.660;13.226;2023-04-07T11:22:36;94839.81;;;8.64;39.85
30110;BME280;14965;50.660;13.226;2023-04-07T11:25:04;94842.47;;;8.51;37.85
30110;BME280;14965;50.660;13.226;2023-04-07T11:27:44;94840.19;;;8.26;38.13
30110;BME280;14965;50.660;13.226;2023-04-07T11:30:11;94834.56;;;8.13;38.08
30110;BME280;14965;50.660;13.226;2023-04-07T11:32:39;94838.06;;;8.14;38.29
30110;BME280;14965;50.660;13.226;2023-04-07T11:35:06;94835.75;;;8.12;38.59
30110;BME280;14965;50.660;13.226;2023-04-07T11:37:32;94842.31;;;8.18;38.79
30110;BME280;14965;50.660;13.226;2023-04-07T11:39:58;94839.69;;;8.31;38.86
30110;BME280;14965;50.660;13.226;2023-04-07T11:42:31;94840.63;;;8.24;39.02
30110;BME280;14965;50.660;13.226;2023-04-07T11:44:58;94845.78;;;8.03;39.97
30110;BME280;14965;50.660;13.226;2023-04-07T11:47:33;94848.66;;;7.95;38.90
30110;BME280;14965;50.660;13.226;2023-04-07T11:50:01;94845.84;;;7.99;39.69
30110;BME280;14965;50.660;13.226;2023-04-07T11:52:27;94842.72;;;7.97;40.34
30110;BME280;14965;50.660;13.226;2023-04-07T11:54:53;94838.44;;;7.96;39.25
30110;BME280;14965;50.660;13.226;2023-04-07T11:57:24;94845.97;;;7.92;41.07
30110;BME280;14965;50.660;13.226;2023-04-07T11:59:50;94832.22;;;7.92;39.88
30110;BME280;14965;50.660;13.226;2023-04-07T12:02:30;94836.41;;;8.00;44.11
30110;BME280;14965;50.660;13.226;2023-04-07T12:05:01;94841.97;;;8.16;42.40
30110;BME280;14965;50.660;13.226;2023-04-07T12:07:27;94851.44;;;8.15;39.75
30110;BME280;14965;50.660;13.226;2023-04-07T12:09:54;94846.25;;;8.17;40.72
30110;BME280;14965;50.660;13.226;2023-04-07T12:12:25;94849.78;;;8.18;39.84
30110;BME280;14965;50.660;13.226;2023-04-07T12:14:51;94841.25;;;8.12;41.67
30110;BME280;14965;50.660;13.226;2023-04-07T12:17:21;94842.72;;;7.97;41.48
30110;BME280;14965;50.660;13.226;2023-04-07T12:19:46;94849.72;;;7.82;41.21
30110;BME280;14965;50.660;13.226;2023-04-07T12:22:14;94831.09;;;7.69;42.66
30110;BME280;14965;50.660;13.226;2023-04-07T12:24:40;94839.94;;;7.77;43.19
30110;BME280;14965;50.660;13.226;2023-04-07T12:27:07;94840.50;;;7.68;42.09
30110;BME280;14965;50.660;13.226;2023-04-07T12:29:33;94838.41;;;7.76;41.87
30110;BME280;14965;50.660;13.226;2023-04-07T12:31:59;94837.06;;;7.84;41.89
30110;BME280;14965;50.660;13.226;2023-04-07T12:34:25;94838.22;;;7.87;41.74
30110;BME280;14965;50.660;13.226;2023-04-07T12:36:51;94843.41;;;7.81;42.28
30110;BME280;14965;50.660;13.226;2023-04-07T12:39:18;94842.69;;;7.57;43.15
30110;BME280;14965;50.660;13.226;2023-04-07T12:41:44;94836.88;;;7.75;41.67
30110;BME280;14965;50.660;13.226;2023-04-07T12:44:10;94843.94;;;7.96;42.14
30110;BME280;14965;50.660;13.226;2023-04-07T12:46:36;94833.97;;;8.02;43.13
30110;BME280;14965;50.660;13.226;2023-04-07T12:49:02;94839.00;;;7.87;42.62
30110;BME280;14965;50.660;13.226;2023-04-07T12:51:29;94846.75;;;7.92;43.71
30110;BME280;14965;50.660;13.226;2023-04-07T12:53:55;94838.16;;;7.90;42.83
30110;BME280;14965;50.660;13.226;2023-04-07T12:56:23;94846.31;;;7.94;43.17
30110;BME280;14965;50.660;13.226;2023-04-07T12:58:49;94847.19;;;7.91;42.75
30110;BME280;14965;50.660;13.226;2023-04-07T13:01:14;94853.16;;;7.86;43.45